Aérodrome :
LOGIN :

S'inscrire | Disclaimer

   EN    FR    IT 

 










Légende :    VFR   VFR Marginal   IFR   IFR Intensif   IFR Très Intensif
Visi : 
Plafond : 
>= 8 km
>= 3000ft
5 à 8 km
1000 à 3000 ft
1500m à 5 km
500 à 1000 ft
800 à 1500m
200 à 500 ft
< 800m
< 200 ft
Symboles :   Orages  Brouillard  Fortes neiges  Fortes précipitations  Vent > 20 kt
SIGMETs :   Divers  Orages  Givrage  Turbulence  Onde Orograph.  Cendres Volcan.






- Altitude de l'aérodrome : 308 ft
- Code IATA : MHG


EDFM - Mannheim-City

DERNIER METAR :
  • 041020Z 01006KT 320V060 9999 FEW043 22/11 Q1016

METARs EXPIRÉS :
  • 040950Z 02005KT 290V070 9999 SCT045 21/11 Q1016
  • 040920Z 34007KT 310V030 CAVOK 20/13 Q1016
  • 040850Z 34006KT 310V030 CAVOK 19/12 Q1016
  • 040820Z 34007KT 320V020 CAVOK 18/12 Q1016
  • 040750Z 35008KT 9999 FEW020 OVC110 17/12 Q1015

TAF TAF EDFM
Valide du 04 à 09h jusqu'au 04 à 18h UTC


040800Z 0409/0418 34007KT 9999 FEW020



MET'MAP, la Météo Aéronautique d'un coup d'oeil ! - Copyright ORBIFLY Décembre 2007 - Disclaimer

ORBIFLY MET'MAP TEAM :

Programmation & Développement : Alexandra Zaïnal
Sur une idée originale de : Baudouin d'Aumeries
Assistance à la programmation : Marc-Olivier Méhu
Soutien technique & logistique : Manuel Goepfert

Contact : metmap@orbifly.com




SOURCES & CREDITS :

   NOAA